Time;durP1;ratioP1;P1;durP2;ratioP2;P2;SDS_P1;SDS_P2;PMS_P1;PMS_P2;Temp;Humidity;BMP_temperature;BMP_pressure;BME280_temperature;BME280_humidity;BME280_pressure;Samples;Min_cycle;Max_cycle;Signal;HPM_P1;HPM_P2
2021/04/16 00:00:08;;;;;;;2.88;2.35;;;4.40;76.00;;;;;;4917494;29;20087;-69
2021/04/16 00:02:34;;;;;;;3.72;2.15;;;4.40;76.50;;;;;;4916733;29;20028;-67
2021/04/16 00:04:59;;;;;;;4.47;2.20;;;4.40;76.60;;;;;;4917910;29;20386;-68
2021/04/16 00:07:25;;;;;;;2.28;1.90;;;4.30;76.60;;;;;;4917587;29;20028;-69
2021/04/16 00:09:51;;;;;;;3.47;2.63;;;4.30;76.70;;;;;;4917420;29;20047;-69
2021/04/16 00:12:16;;;;;;;4.60;2.33;;;4.30;76.80;;;;;;4917848;29;20035;-67
2021/04/16 00:14:42;;;;;;;3.22;2.50;;;4.30;77.00;;;;;;4917421;29;20024;-70
2021/04/16 00:17:09;;;;;;;3.08;2.60;;;4.20;77.20;;;;;;4917833;29;20029;-68
2021/04/16 00:19:34;;;;;;;3.30;2.45;;;4.20;77.20;;;;;;4917785;29;20123;-69
2021/04/16 00:22:00;;;;;;;3.40;3.10;;;4.20;77.60;;;;;;4917060;29;20103;-69
2021/04/16 00:24:26;;;;;;;5.30;2.55;;;4.20;77.60;;;;;;4916129;29;20067;-69
2021/04/16 00:26:51;;;;;;;4.38;2.53;;;4.20;77.70;;;;;;4916639;29;20043;-68
2021/04/16 00:29:17;;;;;;;6.28;2.40;;;4.20;77.90;;;;;;4917570;29;20080;-68
2021/04/16 00:31:50;;;;;;;3.15;2.72;;;4.10;78.10;;;;;;4917799;29;20033;-69
2021/04/16 00:34:24;;;;;;;3.97;2.72;;;4.10;78.20;;;;;;4917100;29;20076;-68
2021/04/16 00:36:51;;;;;;;6.20;2.80;;;4.10;78.50;;;;;;4915759;29;20056;-69
2021/04/16 00:39:21;;;;;;;3.75;2.63;;;4.10;78.80;;;;;;4917590;29;20103;-69
2021/04/16 00:41:47;;;;;;;5.30;2.78;;;4.10;78.80;;;;;;4916384;29;20358;-68
2021/04/16 00:44:13;;;;;;;3.10;2.60;;;4.10;79.00;;;;;;4917150;29;20115;-70
2021/04/16 00:46:49;;;;;;;4.63;3.78;;;4.10;79.20;;;;;;4917549;29;20115;-68
2021/04/16 00:49:21;;;;;;;5.07;2.97;;;4.00;79.60;;;;;;4916954;29;20063;-69
2021/04/16 00:51:52;;;;;;;2.88;2.28;;;4.00;79.70;;;;;;4916992;29;20028;-67
2021/04/16 00:54:26;;;;;;;3.85;2.78;;;4.00;79.90;;;;;;4917593;29;20028;-69
2021/04/16 00:56:53;;;;;;;4.60;4.20;;;4.00;80.00;;;;;;4916169;29;20481;-67
2021/04/16 00:59:23;;;;;;;6.82;2.88;;;4.00;80.30;;;;;;4916201;29;20044;-68
2021/04/16 01:01:49;;;;;;;3.45;2.35;;;4.00;80.50;;;;;;4916884;29;20105;-68
2021/04/16 01:04:16;;;;;;;5.45;2.83;;;4.00;80.50;;;;;;4915543;29;20025;-68
2021/04/16 01:06:41;;;;;;;4.82;2.80;;;4.00;80.50;;;;;;4916861;29;20059;-67
2021/04/16 01:09:08;;;;;;;5.30;2.60;;;4.00;80.70;;;;;;4916143;29;20060;-68
2021/04/16 01:11:34;;;;;;;6.30;2.75;;;3.90;81.00;;;;;;4917018;29;20047;-68
2021/04/16 01:14:00;;;;;;;3.83;2.63;;;3.90;81.10;;;;;;4916937;29;20453;-68
2021/04/16 01:16:30;;;;;;;5.22;2.63;;;3.90;81.10;;;;;;4915965;29;20032;-68
2021/04/16 01:18:58;;;;;;;6.20;3.08;;;3.90;81.50;;;;;;4916113;29;20479;-67
2021/04/16 01:21:31;;;;;;;5.40;3.55;;;3.90;81.80;;;;;;4916635;29;20024;-67
2021/04/16 01:24:22;;;;;;;5.82;5.28;;;3.90;81.90;;;;;;4916068;29;20028;-68
2021/04/16 01:26:48;;;;;;;5.00;2.70;;;3.90;82.00;;;;;;4915082;29;20047;-66
2021/04/16 01:29:15;;;;;;;7.13;3.03;;;3.90;82.00;;;;;;4916188;29;20382;-68
2021/04/16 01:31:47;;;;;;;3.80;2.90;;;3.90;82.10;;;;;;4915693;29;20038;-68
2021/04/16 01:34:18;;;;;;;4.85;4.35;;;3.90;82.40;;;;;;4916577;29;20031;-68
2021/04/16 01:36:44;;;;;;;4.88;4.07;;;3.90;82.60;;;;;;4916105;29;20139;-68
2021/04/16 01:39:12;;;;;;;4.80;3.13;;;3.80;83.00;;;;;;4915359;29;20135;-69
2021/04/16 01:41:38;;;;;;;5.40;2.78;;;3.80;83.20;;;;;;4915976;29;20020;-69
2021/04/16 01:44:10;;;;;;;5.38;3.42;;;3.80;83.40;;;;;;4916106;29;20032;-68
2021/04/16 01:46:54;;;;;;;4.90;3.47;;;3.80;83.70;;;;;;4916681;29;20024;-68
2021/04/16 01:49:21;;;;;;;7.85;3.08;;;3.80;84.30;;;;;;4915823;29;20031;-67
2021/04/16 01:51:47;;;;;;;5.60;3.25;;;3.80;84.70;;;;;;4914073;29;20024;-67
2021/04/16 01:54:15;;;;;;;7.57;3.65;;;3.80;84.70;;;;;;4913703;29;20039;-68
2021/04/16 01:56:44;;;;;;;7.75;4.18;;;3.80;85.00;;;;;;4914979;29;20075;-66
2021/04/16 01:59:12;;;;;;;5.38;3.20;;;3.80;85.00;;;;;;4914674;29;20040;-68
2021/04/16 02:01:39;;;;;;;5.35;3.65;;;3.80;85.30;;;;;;4916058;29;20544;-68
2021/04/16 02:04:05;;;;;;;5.72;3.35;;;3.70;85.70;;;;;;4914793;29;20274;-68
2021/04/16 02:06:34;;;;;;;7.15;5.20;;;3.70;85.90;;;;;;4915261;29;20046;-67
2021/04/16 02:09:02;;;;;;;6.60;3.17;;;3.70;86.20;;;;;;4915240;29;20039;-68
2021/04/16 02:11:27;;;;;;;5.80;3.55;;;3.70;86.20;;;;;;4915921;29;20020;-68
2021/04/16 02:13:53;;;;;;;4.35;3.10;;;3.70;86.20;;;;;;4914811;29;20084;-69
2021/04/16 02:16:19;;;;;;;5.30;3.30;;;3.70;86.40;;;;;;4914694;29;20020;-69
2021/04/16 02:18:44;;;;;;;7.93;4.20;;;3.70;86.60;;;;;;4915532;29;20040;-68
2021/04/16 02:21:10;;;;;;;6.72;4.75;;;3.60;87.00;;;;;;4915022;29;20075;-67
2021/04/16 02:23:35;;;;;;;5.53;4.05;;;3.60;87.20;;;;;;4914442;29;20123;-67
2021/04/16 02:26:01;;;;;;;4.68;3.22;;;3.60;87.20;;;;;;4914942;29;20032;-68
2021/04/16 02:28:26;;;;;;;6.43;3.88;;;3.60;87.20;;;;;;4914968;29;20102;-68
2021/04/16 02:30:52;;;;;;;5.47;4.25;;;3.60;87.20;;;;;;4915264;29;20043;-68
2021/04/16 02:33:17;;;;;;;7.00;5.97;;;3.60;87.20;;;;;;4915743;29;20052;-68
2021/04/16 02:35:43;;;;;;;6.15;3.72;;;3.60;87.30;;;;;;4914894;29;20098;-68
2021/04/16 02:38:08;;;;;;;5.78;3.38;;;3.60;87.20;;;;;;4915654;29;20036;-68
2021/04/16 02:40:34;;;;;;;5.00;3.88;;;3.60;87.30;;;;;;4914536;29;20107;-68
2021/04/16 02:42:59;;;;;;;8.15;7.30;;;3.60;87.60;;;;;;4913411;29;20040;-69
2021/04/16 02:45:26;;;;;;;5.38;3.78;;;3.60;87.70;;;;;;4915382;29;20035;-68
2021/04/16 02:47:53;;;;;;;8.70;7.88;;;3.50;87.80;;;;;;4914534;29;20036;-68
2021/04/16 02:50:23;;;;;;;7.68;3.40;;;3.50;87.80;;;;;;4915423;29;20083;-67
2021/04/16 02:52:49;;;;;;;6.80;3.30;;;3.50;88.20;;;;;;4914967;29;20028;-67
2021/04/16 02:55:15;;;;;;;8.07;3.53;;;3.50;88.10;;;;;;4913062;29;20031;-67
2021/04/16 02:57:41;;;;;;;6.35;3.92;;;3.50;88.10;;;;;;4915352;29;20032;-68
2021/04/16 03:00:09;;;;;;;7.80;3.83;;;3.50;88.20;;;;;;4914736;29;20043;-68
2021/04/16 03:02:34;;;;;;;11.30;8.80;;;3.50;88.30;;;;;;4914525;29;20511;-68
2021/04/16 03:05:00;;;;;;;5.97;2.90;;;3.50;88.40;;;;;;4915009;29;20056;-68
2021/04/16 03:07:26;;;;;;;7.05;3.50;;;3.50;88.40;;;;;;4915512;29;20433;-68
2021/04/16 03:09:51;;;;;;;4.32;2.90;;;3.50;88.70;;;;;;4913121;29;20032;-68
2021/04/16 03:12:17;;;;;;;16.10;9.77;;;3.50;88.80;;;;;;4915309;29;20020;-68
2021/04/16 03:14:42;;;;;;;6.80;3.15;;;3.50;88.90;;;;;;4914858;29;20402;-68
2021/04/16 03:17:08;;;;;;;9.30;5.18;;;3.50;89.00;;;;;;4913066;29;20031;-68
2021/04/16 03:19:33;;;;;;;6.35;3.30;;;3.50;88.90;;;;;;4914817;29;20032;-68
2021/04/16 03:21:59;;;;;;;7.20;4.47;;;3.40;89.20;;;;;;4915862;29;20028;-69
2021/04/16 03:24:25;;;;;;;4.95;3.33;;;3.40;89.20;;;;;;4916752;29;20024;-69
2021/04/16 03:26:50;;;;;;;8.30;3.40;;;3.40;89.50;;;;;;4918580;29;20043;-68
2021/04/16 03:29:16;;;;;;;6.43;3.67;;;3.40;89.50;;;;;;4917464;29;20055;-68
2021/04/16 03:31:41;;;;;;;9.25;3.58;;;3.40;89.60;;;;;;4916563;29;20051;-68
2021/04/16 03:34:08;;;;;;;6.88;3.08;;;3.30;89.60;;;;;;4918315;29;20036;-68
2021/04/16 03:36:34;;;;;;;7.75;3.78;;;3.30;89.80;;;;;;4917380;29;20397;-68
2021/04/16 03:38:59;;;;;;;7.05;3.35;;;3.30;90.00;;;;;;4917363;29;20044;-67
2021/04/16 03:41:25;;;;;;;5.13;3.47;;;3.30;90.10;;;;;;4918568;29;20167;-68
2021/04/16 03:43:50;;;;;;;7.70;3.22;;;3.30;90.20;;;;;;4917401;29;20045;-72
2021/04/16 03:46:17;;;;;;;8.00;6.43;;;3.30;90.10;;;;;;4918147;29;20103;-69
2021/04/16 03:48:43;;;;;;;6.82;3.63;;;3.30;90.10;;;;;;4916776;29;20109;-68
2021/04/16 03:51:09;;;;;;;6.32;3.60;;;3.30;90.20;;;;;;4917824;29;20035;-68
2021/04/16 03:53:40;;;;;;;5.60;3.75;;;3.20;90.20;;;;;;4918333;29;20028;-67
2021/04/16 03:56:08;;;;;;;5.30;3.30;;;3.30;90.40;;;;;;4918118;29;20099;-70
2021/04/16 03:58:35;;;;;;;25.52;22.90;;;3.30;90.60;;;;;;4917111;29;20500;-68
2021/04/16 04:01:02;;;;;;;5.70;3.35;;;3.30;90.60;;;;;;4916883;29;20032;-68
2021/04/16 04:03:28;;;;;;;8.13;3.75;;;3.30;90.60;;;;;;4916187;29;20028;-68
2021/04/16 04:05:53;;;;;;;10.60;6.25;;;3.30;90.60;;;;;;4917261;29;20370;-69
2021/04/16 04:08:19;;;;;;;29.15;22.90;;;3.30;90.70;;;;;;4917091;29;20027;-68
2021/04/16 04:10:44;;;;;;;10.45;4.82;;;3.30;90.80;;;;;;4916626;29;20377;-68
2021/04/16 04:13:12;;;;;;;8.07;3.42;;;3.30;90.80;;;;;;4917585;29;20076;-68
2021/04/16 04:15:38;;;;;;;7.10;4.28;;;3.30;90.90;;;;;;4918282;29;20020;-68
2021/04/16 04:18:07;;;;;;;23.10;21.10;;;3.30;90.90;;;;;;4917214;29;20087;-68
2021/04/16 04:20:34;;;;;;;7.78;3.63;;;3.30;90.90;;;;;;4915595;29;20068;-68
2021/04/16 04:23:01;;;;;;;10.50;7.35;;;3.30;90.90;;;;;;4917482;29;20047;-68
2021/04/16 04:25:29;;;;;;;7.63;3.88;;;3.30;90.90;;;;;;4917389;29;20036;-67
2021/04/16 04:27:55;;;;;;;7.13;4.90;;;3.30;91.00;;;;;;4916801;29;20036;-68
2021/04/16 04:30:25;;;;;;;7.13;3.90;;;3.30;91.00;;;;;;4917722;29;20024;-67
2021/04/16 04:32:51;;;;;;;6.10;4.93;;;3.40;91.00;;;;;;4916052;29;20031;-68
2021/04/16 04:35:17;;;;;;;8.00;4.75;;;3.50;91.00;;;;;;4916958;29;20044;-68
2021/04/16 04:37:42;;;;;;;5.13;3.90;;;3.50;91.00;;;;;;4916141;29;20032;-68
2021/04/16 04:40:09;;;;;;;7.80;4.63;;;3.70;90.90;;;;;;4916581;29;20047;-68
2021/04/16 04:42:34;;;;;;;9.25;4.00;;;3.70;90.80;;;;;;4917423;29;20021;-67
2021/04/16 04:45:00;;;;;;;7.18;4.18;;;3.80;90.70;;;;;;4915483;29;20047;-67
2021/04/16 04:47:26;;;;;;;6.65;4.18;;;3.90;90.60;;;;;;4915745;29;20042;-69
2021/04/16 04:49:51;;;;;;;6.63;4.30;;;4.00;90.50;;;;;;4916760;29;20496;-66
2021/04/16 04:52:22;;;;;;;11.70;5.45;;;4.00;90.50;;;;;;4917076;29;20028;-69
2021/04/16 04:54:50;;;;;;;8.93;4.55;;;4.00;90.30;;;;;;4915144;29;20469;-68
2021/04/16 04:57:19;;;;;;;8.98;4.38;;;4.00;90.20;;;;;;4917348;29;20032;-68
2021/04/16 04:59:45;;;;;;;12.57;4.68;;;4.00;90.30;;;;;;4915413;29;20370;-68
2021/04/16 05:02:11;;;;;;;7.53;4.53;;;3.90;90.30;;;;;;4916302;29;20087;-67
2021/04/16 05:04:37;;;;;;;10.52;4.85;;;3.90;90.30;;;;;;4917092;29;20032;-68
2021/04/16 05:07:04;;;;;;;9.98;5.50;;;3.90;90.40;;;;;;4916882;29;20032;-68
2021/04/16 05:09:29;;;;;;;11.05;4.57;;;3.90;90.50;;;;;;4916166;29;20028;-68
2021/04/16 05:11:55;;;;;;;8.63;4.97;;;3.90;90.50;;;;;;4915466;29;20487;-68
2021/04/16 05:14:21;;;;;;;8.18;4.00;;;3.90;90.50;;;;;;4915892;29;20095;-68
2021/04/16 05:16:46;;;;;;;8.57;4.68;;;3.90;90.40;;;;;;4916210;29;20020;-68
2021/04/16 05:19:12;;;;;;;6.97;4.53;;;4.00;90.50;;;;;;4915226;29;20103;-68
2021/04/16 05:21:39;;;;;;;6.85;4.28;;;4.00;90.40;;;;;;4916861;29;20477;-67
2021/04/16 05:24:06;;;;;;;9.40;4.40;;;4.10;90.40;;;;;;4914620;29;20028;-68
2021/04/16 05:26:33;;;;;;;9.80;4.90;;;4.10;90.40;;;;;;4916620;29;20043;-67
2021/04/16 05:28:58;;;;;;;9.57;4.57;;;4.10;90.30;;;;;;4916047;29;20118;-69
2021/04/16 05:31:24;;;;;;;6.50;4.50;;;4.10;90.30;;;;;;4915739;29;20446;-68
2021/04/16 05:33:49;;;;;;;7.55;4.35;;;4.10;90.30;;;;;;4915136;29;20047;-69
2021/04/16 05:36:15;;;;;;;8.75;4.75;;;4.10;90.30;;;;;;4915992;29;20079;-68
2021/04/16 05:38:40;;;;;;;6.10;4.65;;;4.10;90.40;;;;;;4916380;29;20095;-67
2021/04/16 05:41:06;;;;;;;7.80;5.00;;;4.10;90.40;;;;;;4914904;29;20020;-67
2021/04/16 05:43:31;;;;;;;7.55;4.47;;;4.10;90.50;;;;;;4914541;29;20043;-68
2021/04/16 05:45:57;;;;;;;13.00;4.90;;;4.20;90.50;;;;;;4916076;29;20035;-68
2021/04/16 05:48:23;;;;;;;9.25;4.32;;;4.20;90.50;;;;;;4915916;29;20067;-68
2021/04/16 05:50:48;;;;;;;7.60;4.20;;;4.20;90.50;;;;;;4915293;29;20038;-69
2021/04/16 05:53:14;;;;;;;9.15;5.43;;;4.20;90.50;;;;;;4916300;29;20385;-69
2021/04/16 05:55:40;;;;;;;9.38;4.63;;;4.20;90.50;;;;;;4916336;29;20515;-68
2021/04/16 05:58:06;;;;;;;7.90;4.30;;;4.20;90.50;;;;;;4915145;29;20028;-68
2021/04/16 06:00:32;;;;;;;10.25;4.93;;;4.30;90.50;;;;;;4916022;29;20491;-68
2021/04/16 06:02:57;;;;;;;12.98;5.10;;;4.30;90.40;;;;;;4915413;29;20024;-68
2021/04/16 06:05:23;;;;;;;12.10;5.25;;;4.30;90.30;;;;;;4914800;29;20528;-68
2021/04/16 06:07:51;;;;;;;8.63;5.03;;;4.40;90.30;;;;;;4915503;29;20064;-67
2021/04/16 06:10:17;;;;;;;5.90;4.35;;;4.40;90.30;;;;;;4916137;29;20508;-69
2021/04/16 06:12:43;;;;;;;8.15;4.13;;;4.40;90.30;;;;;;4915287;29;20131;-67
2021/04/16 06:15:12;;;;;;;9.50;4.30;;;4.50;90.20;;;;;;4914481;29;20126;-67
2021/04/16 06:17:38;;;;;;;9.80;4.45;;;4.50;90.20;;;;;;4915885;29;20020;-69
2021/04/16 06:20:07;;;;;;;7.63;4.63;;;4.50;90.10;;;;;;4915068;29;20337;-67
2021/04/16 06:22:33;;;;;;;9.90;4.55;;;4.50;90.20;;;;;;4915103;29;20064;-68
2021/04/16 06:24:58;;;;;;;12.45;4.93;;;4.50;90.10;;;;;;4915152;29;20059;-67
2021/04/16 06:27:24;;;;;;;9.70;5.10;;;4.60;90.10;;;;;;4914735;29;20453;-68
2021/04/16 06:29:50;;;;;;;10.13;4.78;;;4.60;90.10;;;;;;4915306;29;20099;-68
2021/04/16 06:32:18;;;;;;;5.68;4.80;;;4.70;90.10;;;;;;4915745;29;20088;-68
2021/04/16 06:34:44;;;;;;;7.60;4.43;;;4.90;90.00;;;;;;4914423;29;20035;-67
2021/04/16 06:37:10;;;;;;;8.65;4.30;;;4.90;89.50;;;;;;4915655;29;20059;-68
2021/04/16 06:39:36;;;;;;;9.00;4.88;;;5.00;89.80;;;;;;4914931;29;20036;-68
2021/04/16 06:42:13;;;;;;;11.23;4.53;;;5.00;89.00;;;;;;4915505;29;20461;-67
2021/04/16 06:44:39;;;;;;;8.90;4.50;;;5.00;88.90;;;;;;4915700;29;20032;-68
2021/04/16 06:47:13;;;;;;;11.88;5.10;;;5.00;88.80;;;;;;4914594;29;20058;-68
2021/04/16 06:49:40;;;;;;;13.20;5.40;;;5.10;88.70;;;;;;4914915;29;20032;-68
2021/04/16 06:52:17;;;;;;;8.05;5.00;;;5.10;88.80;;;;;;4915155;29;20125;-69
2021/04/16 06:55:06;;;;;;;11.90;5.00;;;5.10;88.70;;;;;;4913365;29;20028;-68
2021/04/16 06:57:58;;;;;;;11.60;5.32;;;5.20;88.70;;;;;;4914840;29;20476;-68
2021/04/16 07:00:42;;;;;;;7.95;4.47;;;5.20;88.60;;;;;;4911882;29;20040;-69
2021/04/16 07:03:29;;;;;;;9.20;4.80;;;5.30;88.30;;;;;;4915078;29;20028;-68
2021/04/16 07:05:56;;;;;;;8.95;5.10;;;5.50;88.20;;;;;;4901750;29;20032;-67
2021/04/16 07:08:34;;;;;;;9.27;4.75;;;5.60;88.00;;;;;;4914789;29;20028;-66
2021/04/16 07:11:00;;;;;;;7.13;4.50;;;5.70;87.70;;;;;;4912462;29;20035;-66
2021/04/16 07:13:31;;;;;;;13.05;5.22;;;5.90;87.30;;;;;;4912676;29;20102;-67
2021/04/16 07:15:57;;;;;;;11.95;4.80;;;6.00;86.90;;;;;;4913370;29;20032;-67
2021/04/16 07:18:29;;;;;;;9.65;4.35;;;6.10;86.10;;;;;;4914681;29;20152;-67
2021/04/16 07:20:54;;;;;;;;;;;6.20;85.80;;;;;;4913881;29;20115;-68
2021/04/16 07:23:21;;;;;;;6.63;4.05;;;6.30;85.30;;;;;;4914483;29;20357;-67
2021/04/16 07:26:05;;;;;;;6.82;4.15;;;6.30;83.90;;;;;;4914541;29;20055;-69
2021/04/16 07:28:44;;;;;;;7.63;4.00;;;6.40;83.10;;;;;;4914671;29;20408;-68
2021/04/16 07:31:33;;;;;;;6.50;3.72;;;6.50;82.70;;;;;;4914928;29;20025;-67
2021/04/16 07:34:01;;;;;;;6.00;3.60;;;6.70;81.90;;;;;;4911796;29;20171;-67
2021/04/16 07:36:38;;;;;;;5.47;3.67;;;6.80;81.70;;;;;;4916834;29;20059;-68
2021/04/16 07:39:12;;;;;;;4.20;3.25;;;6.90;80.60;;;;;;4895621;29;20409;-68
2021/04/16 07:41:54;;;;;;;6.68;3.35;;;7.00;80.20;;;;;;4904042;29;20028;-68
2021/04/16 07:44:27;;;;;;;7.30;3.17;;;7.10;77.80;;;;;;4913289;29;20067;-67
2021/04/16 07:46:57;;;;;;;7.38;3.55;;;7.20;77.10;;;;;;4914617;29;20116;-68
2021/04/16 07:49:35;;;;;;;5.50;3.55;;;7.30;75.70;;;;;;4914594;29;20469;-67
2021/04/16 07:52:26;;;;;;;5.47;3.40;;;7.40;75.50;;;;;;4911602;29;20112;-68
2021/04/16 07:55:07;;;;;;;5.28;3.05;;;7.40;74.90;;;;;;4907242;29;20044;-69
2021/04/16 07:57:36;;;;;;;3.95;2.90;;;7.50;74.40;;;;;;4914300;29;20031;-69
2021/04/16 08:00:32;;;;;;;6.10;3.17;;;7.60;72.80;;;;;;4914413;29;20107;-67
2021/04/16 08:03:19;;;;;;;4.28;2.90;;;7.80;73.30;;;;;;4907807;29;20379;-68
2021/04/16 08:05:57;;;;;;;4.95;2.90;;;7.90;72.30;;;;;;4913972;29;20031;-68
2021/04/16 08:08:45;;;;;;;3.35;3.03;;;8.00;70.80;;;;;;4917222;29;20025;-67
2021/04/16 08:11:16;;;;;;;9.73;3.08;;;8.20;71.00;;;;;;4917661;29;20047;-67
2021/04/16 08:13:45;;;;;;;4.55;2.90;;;8.40;68.50;;;;;;4918033;29;20039;-67
2021/04/16 08:16:10;;;;;;;4.10;2.33;;;8.40;67.00;;;;;;4917475;29;20032;-66
2021/04/16 08:18:36;;;;;;;4.13;2.78;;;8.50;64.50;;;;;;4917249;29;20031;-66
2021/04/16 08:21:19;;;;;;;3.70;2.67;;;8.60;64.90;;;;;;4917253;29;20028;-67
2021/04/16 08:24:09;;;;;;;3.78;2.70;;;8.70;64.80;;;;;;4917555;29;20031;-67
2021/04/16 08:26:41;;;;;;;3.85;2.65;;;8.70;64.50;;;;;;4916746;29;20036;-67
2021/04/16 08:29:26;;;;;;;4.70;2.38;;;8.70;64.70;;;;;;4916937;29;20028;-66
2021/04/16 08:32:26;;;;;;;2.63;1.92;;;8.90;64.60;;;;;;4910606;29;20032;-70
2021/04/16 08:35:19;;;;;;;3.08;2.25;;;9.00;61.30;;;;;;4914905;29;20389;-69
2021/04/16 08:37:48;;;;;;;5.22;2.42;;;9.10;59.80;;;;;;4915582;29;20024;-68
2021/04/16 08:40:23;;;;;;;4.47;2.67;;;9.10;59.20;;;;;;4914725;29;20036;-69
2021/04/16 08:42:49;;;;;;;2.75;2.08;;;9.20;59.20;;;;;;4914349;29;20031;-70
2021/04/16 08:45:22;;;;;;;4.50;2.30;;;9.30;60.60;;;;;;4916334;29;20491;-70
2021/04/16 08:47:59;;;;;;;3.42;1.90;;;9.40;59.60;;;;;;4911920;29;20025;-66
2021/04/16 08:50:30;;;;;;;2.55;1.70;;;9.50;59.20;;;;;;4915843;29;20052;-67
2021/04/16 08:52:59;;;;;;;2.85;2.00;;;9.70;58.50;;;;;;4917023;29;20063;-66
2021/04/16 08:55:35;;;;;;;3.63;2.22;;;9.70;53.70;;;;;;4916633;29;20051;-67
2021/04/16 08:58:26;;;;;;;2.75;1.90;;;9.70;53.20;;;;;;4916834;29;20087;-69
2021/04/16 09:01:16;;;;;;;2.70;1.90;;;9.80;54.00;;;;;;4915595;29;20040;-67
2021/04/16 09:03:47;;;;;;;3.80;1.95;;;9.80;55.50;;;;;;4916826;29;20030;-67
2021/04/16 09:06:25;;;;;;;4.55;1.65;;;9.90;53.90;;;;;;4915832;29;20028;-68
2021/04/16 09:08:53;;;;;;;4.25;1.90;;;9.90;55.30;;;;;;4915596;29;20087;-69
2021/04/16 09:11:44;;;;;;;4.03;2.08;;;10.00;53.10;;;;;;4916773;29;20115;-70
2021/04/16 09:14:20;;;;;;;3.93;2.17;;;10.00;53.00;;;;;;4913107;29;20044;-68
2021/04/16 09:16:45;;;;;;;3.50;2.60;;;10.00;53.30;;;;;;4916225;29;20264;-72
2021/04/16 09:19:26;;;;;;;4.53;2.30;;;10.00;54.40;;;;;;4914539;29;20047;-71
2021/04/16 09:24:41;;;;;;;3.72;1.48;;;10.10;52.50;;;;;;4916834;29;20036;-77
2021/04/16 09:27:33;;;;;;;3.22;1.75;;;10.20;50.70;;;;;;4915980;29;20543;-73
2021/04/16 09:29:58;;;;;;;2.58;2.00;;;10.20;50.80;;;;;;4915963;29;20500;-77
2021/04/16 09:32:37;;;;;;;6.78;2.38;;;10.20;51.70;;;;;;4914392;29;20032;-75
2021/04/16 09:35:07;;;;;;;2.13;1.90;;;10.30;51.20;;;;;;4914539;29;20028;-74
2021/04/16 09:37:45;;;;;;;1.70;1.60;;;10.20;50.80;;;;;;4915898;29;20032;-71
2021/04/16 09:40:24;;;;;;;2.22;1.60;;;10.20;50.90;;;;;;4915332;29;20044;-74
2021/04/16 09:43:21;;;;;;;2.90;2.00;;;10.30;50.70;;;;;;4915422;29;20024;-77
2021/04/16 09:45:54;;;;;;;6.10;2.55;;;10.40;50.00;;;;;;4911202;29;20051;-75
2021/04/16 09:48:20;;;;;;;4.30;2.60;;;10.40;48.80;;;;;;4915998;29;20060;-71
2021/04/16 09:50:56;;;;;;;2.60;1.92;;;10.50;50.80;;;;;;4915041;29;20477;-71
2021/04/16 09:53:26;;;;;;;3.60;1.63;;;10.50;49.50;;;;;;4916575;29;20035;-72
2021/04/16 09:55:58;;;;;;;3.13;1.73;;;10.50;49.50;;;;;;4915937;29;20508;-70
2021/04/16 09:58:29;;;;;;;2.72;1.80;;;10.50;50.30;;;;;;4915411;29;20469;-74
2021/04/16 10:00:55;;;;;;;3.58;1.80;;;10.60;50.50;;;;;;4915462;29;20032;-76
2021/04/16 10:03:33;;;;;;;2.85;1.70;;;10.70;50.40;;;;;;4914450;29;20523;-80
2021/04/16 10:06:31;;;;;;;2.17;1.73;;;10.70;49.80;;;;;;4915674;29;20036;-70
2021/04/16 10:09:18;;;;;;;2.28;1.40;;;10.70;49.60;;;;;;4915004;29;20023;-72
2021/04/16 10:11:55;;;;;;;2.72;2.13;;;10.80;49.70;;;;;;4914757;29;20040;-69
2021/04/16 10:14:23;;;;;;;4.03;1.70;;;10.90;47.60;;;;;;4914581;29;20032;-75
2021/04/16 10:17:20;;;;;;;3.85;1.63;;;10.90;47.40;;;;;;4915266;29;20020;-69
2021/04/16 10:20:13;;;;;;;2.63;1.83;;;10.90;48.90;;;;;;4909693;29;20478;-73
2021/04/16 10:22:38;;;;;;;2.67;1.63;;;11.00;49.30;;;;;;4915525;29;20032;-80
2021/04/16 10:55:57;;;;;;;3.65;1.90;;;11.30;47.20;;;;;;4914635;29;20433;-71
2021/04/16 12:40:25;;;;;;;3.60;1.52;;;12.90;39.80;;;;;;4915877;29;20095;-74
2021/04/16 12:42:53;;;;;;;3.95;1.90;;;12.90;39.40;;;;;;4914852;29;20457;-69
2021/04/16 12:45:19;;;;;;;1.73;1.40;;;13.00;38.80;;;;;;4914841;29;20055;-67
2021/04/16 12:47:45;;;;;;;2.13;1.30;;;13.10;37.80;;;;;;4913550;29;20099;-66
2021/04/16 12:50:14;;;;;;;2.50;1.45;;;13.10;36.40;;;;;;4913882;29;20119;-65
2021/04/16 12:52:40;;;;;;;2.40;1.50;;;13.10;37.10;;;;;;4912024;29;20013;-66
2021/04/16 12:55:06;;;;;;;1.75;1.58;;;13.10;37.60;;;;;;4910486;29;20040;-67
2021/04/16 12:57:40;;;;;;;2.40;1.50;;;13.10;37.30;;;;;;4911991;29;20032;-72
2021/04/16 13:00:09;;;;;;;2.13;1.50;;;13.00;38.50;;;;;;4911981;29;20508;-73
2021/04/16 13:02:35;;;;;;;1.88;1.35;;;13.10;39.50;;;;;;4911793;29;20469;-70
2021/04/16 13:05:04;;;;;;;2.42;1.45;;;13.20;38.40;;;;;;4911668;29;20043;-68
2021/04/16 13:07:30;;;;;;;2.17;1.50;;;13.30;38.30;;;;;;4910809;29;20024;-70
2021/04/16 13:09:56;;;;;;;2.83;1.48;;;13.40;39.60;;;;;;4912191;29;20040;-72
2021/04/16 13:12:21;;;;;;;2.28;1.50;;;13.50;38.60;;;;;;4914077;29;20016;-74
2021/04/16 13:14:48;;;;;;;3.00;1.33;;;13.60;38.90;;;;;;4914684;29;20112;-69
2021/04/16 13:17:17;;;;;;;2.15;1.90;;;13.80;38.40;;;;;;4910641;29;20402;-69
2021/04/16 13:19:44;;;;;;;2.70;1.65;;;13.90;38.40;;;;;;4914422;29;20159;-68
2021/04/16 13:22:15;;;;;;;4.25;2.13;;;14.00;39.10;;;;;;4915462;29;20059;-68
2021/04/16 13:24:43;;;;;;;2.38;2.15;;;14.10;37.80;;;;;;4915933;29;20401;-70
2021/04/16 13:27:11;;;;;;;6.32;1.60;;;14.00;37.70;;;;;;4916089;29;20103;-69
2021/04/16 13:29:37;;;;;;;2.78;1.50;;;13.90;37.90;;;;;;4915814;29;20032;-71
2021/04/16 13:32:06;;;;;;;1.65;1.40;;;13.80;38.60;;;;;;4914815;29;20030;-70
2021/04/16 13:34:33;;;;;;;2.35;1.65;;;13.70;39.40;;;;;;4913885;29;20055;-71
2021/04/16 13:36:59;;;;;;;4.55;1.98;;;13.70;40.10;;;;;;4914843;29;20517;-67
2021/04/16 13:39:25;;;;;;;2.05;1.85;;;13.60;39.30;;;;;;4916602;29;20023;-67
2021/04/16 13:41:51;;;;;;;3.90;2.05;;;13.50;39.50;;;;;;4915688;29;20040;-67
2021/04/16 13:44:16;;;;;;;2.95;1.83;;;13.40;39.70;;;;;;4916315;29;20100;-68
2021/04/16 13:46:42;;;;;;;1.90;1.67;;;13.50;39.90;;;;;;4915179;29;20119;-68
2021/04/16 13:49:14;;;;;;;3.05;2.05;;;13.60;40.10;;;;;;4915507;29;20056;-66
2021/04/16 13:51:40;;;;;;;6.13;1.58;;;13.70;39.60;;;;;;4916328;29;20024;-69
2021/04/16 13:54:07;;;;;;;2.00;1.40;;;13.60;39.70;;;;;;4915270;29;20094;-65
2021/04/16 13:56:34;;;;;;;4.03;2.35;;;13.70;40.40;;;;;;4914974;29;20452;-65
2021/04/16 13:59:00;;;;;;;3.28;1.75;;;13.70;40.40;;;;;;4915835;29;20024;-67
2021/04/16 14:01:26;;;;;;;3.47;1.73;;;13.80;40.80;;;;;;4914235;29;20055;-66
2021/04/16 14:03:56;;;;;;;3.50;1.70;;;13.90;41.10;;;;;;4915514;29;20044;-66
2021/04/16 14:06:26;;;;;;;1.93;1.60;;;14.00;41.50;;;;;;4915779;29;20024;-65
2021/04/16 14:08:59;;;;;;;3.00;2.40;;;14.00;41.10;;;;;;4913711;29;20020;-64
2021/04/16 14:11:26;;;;;;;2.85;1.75;;;14.10;38.90;;;;;;4916138;29;20020;-65
2021/04/16 14:13:53;;;;;;;2.53;1.88;;;14.10;39.10;;;;;;4915246;29;20028;-67
2021/04/16 14:16:34;;;;;;;5.22;2.17;;;14.00;38.80;;;;;;4915698;29;20032;-65
2021/04/16 14:19:06;;;;;;;2.42;1.90;;;13.90;39.40;;;;;;4915589;29;20075;-67
2021/04/16 14:21:37;;;;;;;2.60;1.73;;;14.00;39.70;;;;;;4915872;29;20062;-67
2021/04/16 14:24:05;;;;;;;2.67;2.25;;;14.00;39.50;;;;;;4914640;29;20084;-68
2021/04/16 14:26:30;;;;;;;2.67;1.80;;;14.10;39.20;;;;;;4915619;29;20036;-67
2021/04/16 14:28:56;;;;;;;3.97;2.13;;;14.10;40.30;;;;;;4898374;29;20035;-67
2021/04/16 14:31:21;;;;;;;4.82;2.85;;;14.20;40.00;;;;;;4914259;29;20028;-66
2021/04/16 14:33:48;;;;;;;2.55;1.83;;;14.10;40.30;;;;;;4913919;29;20504;-66
2021/04/16 14:36:15;;;;;;;2.42;1.75;;;14.10;40.70;;;;;;4913516;29;20143;-67
2021/04/16 14:38:41;;;;;;;2.28;1.80;;;14.10;39.60;;;;;;4914221;29;20028;-66
2021/04/16 14:41:07;;;;;;;2.63;1.90;;;14.00;40.10;;;;;;4913684;29;20503;-66
2021/04/16 14:43:34;;;;;;;4.13;2.00;;;14.10;40.40;;;;;;4914584;29;20112;-65
2021/04/16 14:46:00;;;;;;;4.03;2.10;;;14.10;39.90;;;;;;4915234;29;20087;-67
2021/04/16 14:48:27;;;;;;;4.80;2.33;;;14.20;40.20;;;;;;4915428;29;20024;-67
2021/04/16 14:50:59;;;;;;;3.45;2.40;;;14.40;39.70;;;;;;4913225;29;20090;-66
2021/04/16 14:53:27;;;;;;;5.78;1.98;;;14.40;39.90;;;;;;4915390;29;20028;-65
2021/04/16 14:55:54;;;;;;;3.85;2.30;;;14.40;39.90;;;;;;4914935;29;20111;-67
2021/04/16 14:58:50;;;;;;;3.92;2.00;;;14.40;40.00;;;;;;4914833;29;20086;-65
2021/04/16 15:01:18;;;;;;;5.18;1.88;;;14.40;40.30;;;;;;4913067;29;20043;-68
2021/04/16 15:03:44;;;;;;;2.55;1.67;;;14.40;40.30;;;;;;4915162;29;20107;-66
2021/04/16 15:06:18;;;;;;;3.70;1.83;;;14.50;40.40;;;;;;4913501;29;20020;-66
2021/04/16 15:08:52;;;;;;;2.83;2.17;;;14.60;40.50;;;;;;4915157;29;20032;-66
2021/04/16 15:11:19;;;;;;;1.60;1.50;;;14.60;40.10;;;;;;4914675;29;20493;-66
2021/04/16 15:13:45;;;;;;;4.30;1.83;;;14.80;40.10;;;;;;4913492;29;20024;-66
2021/04/16 15:16:17;;;;;;;1.90;1.77;;;14.80;38.80;;;;;;4915031;29;20083;-66
2021/04/16 15:18:43;;;;;;;2.45;1.55;;;14.50;38.70;;;;;;4917671;29;20461;-66
2021/04/16 15:21:13;;;;;;;4.50;1.90;;;14.20;39.30;;;;;;4918630;29;20064;-66